createdAt,value
2019-04-05T00:01:25.182Z,24.70
2019-04-05T00:03:28.983Z,24.17
2019-04-05T00:05:32.770Z,25.43
2019-04-05T00:07:36.696Z,28.30
2019-04-05T00:09:40.511Z,24.17
2019-04-05T00:11:44.833Z,26.60
2019-04-05T00:13:49.098Z,27.67
2019-04-05T00:15:53.324Z,27.23
2019-04-05T00:17:57.206Z,25.27
2019-04-05T00:20:00.994Z,25.37
2019-04-05T00:22:05.057Z,26.10
2019-04-05T00:24:08.844Z,27.13
2019-04-05T00:26:13.090Z,27.00
2019-04-05T00:28:17.876Z,25.47
2019-04-05T00:30:21.930Z,27.23
2019-04-05T00:32:25.756Z,29.97
2019-04-05T00:34:29.906Z,25.33
2019-04-05T00:36:33.647Z,24.70
2019-04-05T00:38:37.903Z,26.57
2019-04-05T00:40:41.719Z,24.93
2019-04-05T00:42:45.997Z,24.43
2019-04-05T00:44:49.831Z,23.63
2019-04-05T00:46:53.708Z,24.50
2019-04-05T00:48:57.539Z,22.70
2019-04-05T00:51:01.459Z,25.27
2019-04-05T00:53:05.416Z,23.97
2019-04-05T00:55:09.942Z,22.83
2019-04-05T00:57:13.734Z,23.53
2019-04-05T00:59:18.190Z,23.50
2019-04-05T01:01:22.195Z,26.30
2019-04-05T01:03:26.034Z,25.77
2019-04-05T01:05:30.840Z,24.43
2019-04-05T01:07:34.759Z,28.37
2019-04-05T01:09:38.671Z,29.73
2019-04-05T01:11:42.523Z,30.73
2019-04-05T01:13:47.250Z,27.47
2019-04-05T01:15:51.227Z,25.63
2019-04-05T01:17:55.303Z,27.93
2019-04-05T01:20:02.469Z,27.43
2019-04-05T01:22:07.895Z,30.73
2019-04-05T01:24:13.534Z,29.70
2019-04-05T01:26:19.314Z,29.83
2019-04-05T01:28:24.347Z,29.27
2019-04-05T01:30:28.479Z,27.97
2019-04-05T01:32:32.395Z,26.33
2019-04-05T01:34:36.477Z,25.60
2019-04-05T01:36:40.431Z,28.10
2019-04-05T01:38:44.308Z,30.23
2019-04-05T01:40:48.958Z,30.07
2019-04-05T01:42:52.868Z,27.97
2019-04-05T01:44:56.845Z,30.30
2019-04-05T01:47:00.694Z,31.43
2019-04-05T01:49:04.664Z,36.93
2019-04-05T01:51:08.523Z,31.07
2019-04-05T01:53:12.441Z,30.07
2019-04-05T01:55:16.850Z,28.43
2019-04-05T01:57:20.742Z,26.40
2019-04-05T01:59:43.826Z,26.33
2019-04-05T02:01:48.760Z,23.27
2019-04-05T02:03:52.636Z,25.30
2019-04-05T02:05:56.687Z,24.53
2019-04-05T02:08:00.803Z,22.00
2019-04-05T02:10:06.552Z,24.60
2019-04-05T02:12:10.700Z,23.80
2019-04-05T02:14:14.829Z,20.90
2019-04-05T02:16:19.419Z,25.10
2019-04-05T02:18:23.306Z,25.40
2019-04-05T02:20:28.174Z,25.90
2019-04-05T02:22:32.111Z,29.27
2019-04-05T02:24:36.060Z,29.73
2019-04-05T02:26:39.989Z,30.63
2019-04-05T02:28:43.980Z,31.07
2019-04-05T02:30:48.625Z,26.97
2019-04-05T02:32:52.680Z,27.67
2019-04-05T02:34:56.645Z,30.27
2019-04-05T02:37:00.508Z,33.87
2019-04-05T02:39:06.577Z,27.93
2019-04-05T02:41:11.021Z,29.77
2019-04-05T02:43:18.298Z,29.37
2019-04-05T02:45:23.277Z,25.97
2019-04-05T02:47:27.635Z,34.23
2019-04-05T02:49:33.685Z,35.97
2019-04-05T02:51:39.752Z,31.67
2019-04-05T02:53:45.329Z,30.07
2019-04-05T02:55:50.868Z,34.57
2019-04-05T02:57:58.197Z,31.70
2019-04-05T03:00:02.961Z,29.63
2019-04-05T03:02:07.361Z,29.30
2019-04-05T03:04:12.018Z,31.27
2019-04-05T03:06:16.955Z,38.70
2019-04-05T03:08:21.086Z,32.97
2019-04-05T03:11:01.472Z,34.20
2019-04-05T03:13:05.296Z,31.90
2019-04-05T03:15:09.611Z,32.00
2019-04-05T03:17:13.869Z,29.10
2019-04-05T03:19:21.911Z,29.17
2019-04-05T03:21:28.732Z,32.23
2019-04-05T03:23:35.826Z,33.03
2019-04-05T03:25:39.850Z,34.87
2019-04-05T03:27:43.799Z,35.73
2019-04-05T03:29:48.650Z,40.83
2019-04-05T03:31:53.092Z,44.47
2019-04-05T03:33:57.419Z,48.47
2019-04-05T03:36:01.863Z,46.90
2019-04-05T03:38:06.591Z,43.00
2019-04-05T03:40:10.644Z,46.53
2019-04-05T03:42:14.952Z,49.50
2019-04-05T03:44:22.980Z,49.67
2019-04-05T03:46:25.575Z,47.87
2019-04-05T03:48:29.535Z,44.13
2019-04-05T03:50:33.612Z,56.37
2019-04-05T03:52:37.793Z,49.10
2019-04-05T03:54:42.125Z,42.17
2019-04-05T03:56:46.418Z,45.20
2019-04-05T03:58:50.657Z,45.97
2019-04-05T04:00:55.100Z,44.60
2019-04-05T04:02:59.232Z,45.70
2019-04-05T04:05:03.550Z,44.07
2019-04-05T04:07:07.568Z,43.27
2019-04-05T04:09:11.457Z,40.77
2019-04-05T04:11:15.468Z,48.20
2019-04-05T04:13:20.492Z,43.00
2019-04-05T04:15:25.616Z,45.77
2019-04-05T04:17:29.549Z,44.27
2019-04-05T04:19:33.712Z,40.70
2019-04-05T04:22:23.664Z,161.07
2019-04-05T04:24:27.589Z,46.77
2019-04-05T04:26:32.152Z,42.57
2019-04-05T04:28:37.193Z,39.13
2019-04-05T04:30:41.628Z,38.07
2019-04-05T04:32:45.594Z,40.20
2019-04-05T04:34:50.549Z,41.97
2019-04-05T04:36:54.650Z,42.93
2019-04-05T04:38:58.944Z,40.67
2019-04-05T04:41:02.987Z,41.87
2019-04-05T04:43:07.029Z,40.27
2019-04-05T04:45:12.992Z,44.57
2019-04-05T04:47:26.170Z,43.57
2019-04-05T04:49:23.809Z,40.17
2019-04-05T04:51:27.977Z,38.03
2019-04-05T04:53:32.135Z,39.90
2019-04-05T04:55:36.375Z,47.00
2019-04-05T04:57:40.460Z,43.60
2019-04-05T04:59:44.401Z,46.30
2019-04-05T05:01:49.215Z,46.00
2019-04-05T05:03:53.500Z,49.23
2019-04-05T05:06:00.192Z,40.20
2019-04-05T05:08:04.355Z,51.13
2019-04-05T05:10:10.249Z,45.37
2019-04-05T05:12:14.255Z,44.70
2019-04-05T05:14:20.926Z,46.57
2019-04-05T05:16:27.761Z,45.23
2019-04-05T05:18:31.820Z,44.63
2019-04-05T05:20:37.591Z,44.43
2019-04-05T05:22:41.869Z,46.37
2019-04-05T05:24:45.866Z,42.07
2019-04-05T05:26:50.797Z,47.97
2019-04-05T05:28:54.688Z,44.43
2019-04-05T05:30:59.029Z,44.90
2019-04-05T05:33:03.185Z,48.27
2019-04-05T05:35:08.314Z,47.27
2019-04-05T05:37:12.246Z,42.57
2019-04-05T05:39:16.453Z,41.73
2019-04-05T05:41:21.128Z,44.77
2019-04-05T05:43:25.069Z,47.37
2019-04-05T05:45:29.106Z,44.03
2019-04-05T05:47:32.975Z,48.83
2019-04-05T05:49:36.792Z,51.80
2019-04-05T05:51:41.233Z,47.30
2019-04-05T05:53:45.284Z,44.27
2019-04-05T05:55:50.647Z,44.33
2019-04-05T05:57:56.180Z,44.90
2019-04-05T06:00:00.490Z,44.23
2019-04-05T06:02:07.269Z,40.50
2019-04-05T06:04:12.792Z,40.33
2019-04-05T06:06:17.167Z,37.67
2019-04-05T06:08:21.623Z,40.30
2019-04-05T06:10:25.417Z,36.00
2019-04-05T06:12:29.367Z,35.87
2019-04-05T06:14:33.179Z,37.37
2019-04-05T06:16:46.346Z,34.10
2019-04-05T06:18:42.535Z,34.40
2019-04-05T06:20:46.629Z,33.50
2019-04-05T06:22:51.527Z,35.17
2019-04-05T06:24:55.327Z,34.23
2019-04-05T06:26:59.495Z,32.33
2019-04-05T06:29:03.359Z,31.23
2019-04-05T06:31:07.164Z,29.53
2019-04-05T06:33:11.030Z,32.90
2019-04-05T06:35:14.914Z,32.30
2019-04-05T06:37:19.546Z,32.80
2019-04-05T06:39:23.346Z,30.70
2019-04-05T06:41:27.157Z,28.27
2019-04-05T06:43:31.067Z,31.53
2019-04-05T06:45:34.901Z,29.37
2019-04-05T06:47:38.699Z,30.27
2019-04-05T06:49:42.495Z,31.57
2019-04-05T06:51:46.279Z,27.90
2019-04-05T06:53:51.099Z,31.03
2019-04-05T06:55:54.931Z,28.90
2019-04-05T06:57:58.866Z,34.00
2019-04-05T07:00:02.682Z,39.83
2019-04-05T07:02:07.252Z,37.60
2019-04-05T07:04:11.156Z,37.23
2019-04-05T07:06:15.094Z,38.77
2019-04-05T07:08:20.416Z,42.03
2019-04-05T07:10:24.195Z,48.67
2019-04-05T07:12:28.095Z,41.53
2019-04-05T07:14:31.869Z,44.70
2019-04-05T07:16:35.724Z,35.70
2019-04-05T07:18:39.605Z,41.37
2019-04-05T07:20:43.479Z,38.80
2019-04-05T07:22:47.486Z,38.57
2019-04-05T07:24:52.124Z,38.73
2019-04-05T07:26:56.095Z,36.17
2019-04-05T07:28:59.922Z,36.37
2019-04-05T07:31:03.771Z,39.07
2019-04-05T07:33:07.582Z,42.67
2019-04-05T07:35:11.511Z,39.77
2019-04-05T07:37:15.305Z,37.17
2019-04-05T07:39:20.477Z,35.27
2019-04-05T07:41:24.275Z,40.57
2019-04-05T07:43:28.034Z,32.37
2019-04-05T07:45:31.963Z,35.87
2019-04-05T07:47:35.836Z,38.17
2019-04-05T07:49:39.673Z,35.40
2019-04-05T07:51:43.575Z,37.50
2019-04-05T07:53:47.407Z,33.47
2019-04-05T07:55:51.760Z,28.80
2019-04-05T07:58:08.487Z,32.23
2019-04-05T08:00:26.424Z,28.77
2019-04-05T08:02:36.512Z,28.33
2019-04-05T08:04:42.495Z,26.27
2019-04-05T08:06:50.103Z,27.77
2019-04-05T08:09:06.216Z,24.37
2019-04-05T08:11:11.744Z,29.83
2019-04-05T08:13:16.923Z,31.00
2019-04-05T08:15:21.374Z,31.83
2019-04-05T08:17:25.177Z,25.93
2019-04-05T08:19:29.105Z,27.20
2019-04-05T08:21:33.059Z,43.70
2019-04-05T08:23:36.944Z,61.10
2019-04-05T08:25:41.361Z,33.97
2019-04-05T08:27:45.227Z,24.23
2019-04-05T08:29:49.761Z,23.30
2019-04-05T08:31:53.759Z,29.23
2019-04-05T08:33:57.544Z,109.23
2019-04-05T08:36:01.514Z,50.97
2019-04-05T08:38:05.419Z,24.30
2019-04-05T08:40:09.499Z,23.67
2019-04-05T08:42:13.683Z,19.47
2019-04-05T08:44:17.544Z,17.50
2019-04-05T08:46:22.196Z,17.20
2019-04-05T08:48:26.083Z,19.60
2019-04-05T08:50:29.870Z,18.87
2019-04-05T08:52:33.828Z,16.43
2019-04-05T08:54:37.683Z,17.53
2019-04-05T08:56:41.611Z,17.27
2019-04-05T08:58:45.356Z,16.00
2019-04-05T09:00:49.981Z,17.53
2019-04-05T09:02:54.034Z,16.47
2019-04-05T09:04:58.011Z,16.27
2019-04-05T09:07:01.835Z,16.13
2019-04-05T09:09:07.347Z,14.60
2019-04-05T09:11:11.247Z,14.53
2019-04-05T09:13:15.498Z,18.13
2019-04-05T09:15:20.015Z,14.40
2019-04-05T09:17:23.930Z,17.13
2019-04-05T09:19:28.216Z,15.47
2019-04-05T09:21:32.048Z,15.83
2019-04-05T09:23:36.026Z,16.13
2019-04-05T09:25:39.879Z,15.10
2019-04-05T09:27:43.784Z,17.00
2019-04-05T09:29:47.573Z,14.57
2019-04-05T09:31:52.344Z,16.50
2019-04-05T09:33:56.216Z,15.27
2019-04-05T09:36:00.106Z,16.80
2019-04-05T09:38:04.188Z,14.23
2019-04-05T09:40:08.224Z,13.17
2019-04-05T09:42:12.084Z,15.30
2019-04-05T09:44:15.971Z,15.80
2019-04-05T09:46:20.670Z,13.23
2019-04-05T09:48:24.588Z,16.00
2019-04-05T09:50:28.387Z,15.57
2019-04-05T09:52:32.179Z,14.37
2019-04-05T09:54:35.970Z,13.53
2019-04-05T09:56:39.784Z,11.47
2019-04-05T09:58:43.574Z,14.07
2019-04-05T10:00:47.482Z,14.07
2019-04-05T10:02:52.377Z,12.40
2019-04-05T10:04:56.179Z,14.80
2019-04-05T10:07:00.019Z,12.03
2019-04-05T10:09:05.922Z,12.47
2019-04-05T10:11:09.805Z,12.67
2019-04-05T10:13:13.578Z,10.37
2019-04-05T10:15:18.295Z,11.90
2019-04-05T10:17:23.404Z,9.30
2019-04-05T10:19:27.204Z,12.43
2019-04-05T10:21:31.070Z,9.57
2019-04-05T10:23:34.888Z,10.83
2019-04-05T10:25:38.693Z,8.53
2019-04-05T10:27:42.524Z,11.83
2019-04-05T10:29:49.282Z,10.07
2019-04-05T10:31:52.766Z,13.13
2019-04-05T10:33:56.730Z,11.37
2019-04-05T10:36:00.525Z,13.33
2019-04-05T10:38:04.438Z,11.07
2019-04-05T10:40:08.641Z,10.83
2019-04-05T10:42:28.251Z,11.73
2019-04-05T10:44:32.180Z,13.30
2019-04-05T10:46:35.989Z,10.53
2019-04-05T10:48:39.798Z,12.70
2019-04-05T10:50:44.497Z,11.70
2019-04-05T10:52:48.897Z,11.80
2019-04-05T10:54:53.093Z,12.83
2019-04-05T10:56:58.144Z,11.73
2019-04-05T10:59:02.113Z,11.60
2019-04-05T11:01:06.191Z,12.23
2019-04-05T11:03:10.012Z,11.50
2019-04-05T11:05:14.476Z,11.50
2019-04-05T11:07:18.460Z,11.30
2019-04-05T11:09:23.023Z,10.00
2019-04-05T11:11:27.196Z,11.17
2019-04-05T11:13:31.004Z,12.20
2019-04-05T11:15:37.459Z,12.93
2019-04-05T11:17:42.485Z,11.30
2019-04-05T11:19:46.592Z,12.27
2019-04-05T11:21:52.270Z,12.50
2019-04-05T11:23:56.389Z,12.07
2019-04-05T11:26:00.407Z,11.37
2019-04-05T11:28:04.350Z,12.20
2019-04-05T11:30:09.060Z,12.07
2019-04-05T11:32:13.018Z,12.77
2019-04-05T11:34:17.372Z,13.90
2019-04-05T11:36:21.990Z,13.17
2019-04-05T11:38:26.546Z,11.10
2019-04-05T11:40:30.608Z,16.47
2019-04-05T11:42:37.355Z,16.43
2019-04-05T11:44:42.945Z,16.03
2019-04-05T11:46:49.447Z,13.37
2019-04-05T11:48:53.975Z,14.20
2019-04-05T11:50:57.768Z,11.77
2019-04-05T11:53:01.699Z,21.10
2019-04-05T11:55:06.072Z,23.23
2019-04-05T11:57:09.876Z,21.10
2019-04-05T11:59:16.146Z,13.13
2019-04-05T12:01:26.088Z,11.33
2019-04-05T12:06:46.735Z,13.17
2019-04-05T12:08:50.681Z,14.13
2019-04-05T12:20:06.815Z,15.93
2019-04-05T12:22:10.703Z,14.73
2019-04-05T12:24:14.571Z,18.33
2019-04-05T12:26:18.552Z,13.83
2019-04-05T12:28:22.355Z,13.83
2019-04-05T12:30:26.396Z,14.43
2019-04-05T12:32:33.671Z,15.93
2019-04-05T12:34:35.938Z,21.30
2019-04-05T12:36:39.734Z,17.63
2019-04-05T12:38:43.538Z,14.77
2019-04-05T12:40:47.332Z,13.23
2019-04-05T12:42:52.952Z,13.47
2019-04-05T12:44:56.710Z,14.73
2019-04-05T12:47:00.647Z,15.90
2019-04-05T12:49:04.674Z,18.23
2019-04-05T12:51:08.596Z,17.17
2019-04-05T12:53:12.503Z,18.83
2019-04-05T12:55:16.446Z,20.10
2019-04-05T12:57:20.344Z,19.90
2019-04-05T12:59:25.567Z,16.43
2019-04-05T13:01:29.842Z,18.13
2019-04-05T13:03:33.647Z,17.37
2019-04-05T13:05:37.471Z,18.97
2019-04-05T13:07:41.291Z,13.67
2019-04-05T13:09:45.776Z,14.77
2019-04-05T13:11:49.780Z,17.20
2019-04-05T13:13:54.337Z,15.57
2019-04-05T13:15:59.575Z,23.27
2019-04-05T13:18:03.618Z,17.33
2019-04-05T13:20:08.230Z,17.97
2019-04-05T13:22:12.518Z,19.40
2019-04-05T13:24:16.526Z,14.30
2019-04-05T13:26:20.344Z,16.07
2019-04-05T13:28:24.261Z,14.40
2019-04-05T13:30:28.439Z,16.77
2019-04-05T13:32:32.383Z,13.53
2019-04-05T13:34:36.532Z,17.63
2019-04-05T13:36:40.414Z,13.90
2019-04-05T13:38:54.206Z,15.43
2019-04-05T13:40:49.839Z,16.80
2019-04-05T13:42:53.699Z,16.47
2019-04-05T13:44:57.578Z,16.37
2019-04-05T13:47:01.455Z,20.23
2019-04-05T13:49:05.334Z,15.60
2019-04-05T13:51:11.833Z,13.57
2019-04-05T13:53:15.058Z,14.20
2019-04-05T13:55:18.918Z,15.87
2019-04-05T13:57:22.845Z,15.77
2019-04-05T13:59:26.791Z,13.70
2019-04-05T14:01:30.718Z,15.23
2019-04-05T14:03:34.579Z,14.53
2019-04-05T14:05:38.586Z,11.97
2019-04-05T14:07:42.431Z,15.17
2019-04-05T14:09:46.217Z,16.23
2019-04-05T14:11:51.523Z,20.03
2019-04-05T14:13:58.511Z,16.53
2019-04-05T14:16:06.133Z,18.93
2019-04-05T14:18:09.998Z,14.73
2019-04-05T14:20:18.695Z,18.67
2019-04-05T14:22:22.512Z,16.73
2019-04-05T14:24:26.672Z,15.47
2019-04-05T14:26:30.469Z,20.10
2019-04-05T14:28:34.871Z,17.87
2019-04-05T14:30:38.884Z,16.57
2019-04-05T14:32:42.677Z,14.90
2019-04-05T14:34:46.536Z,15.90
2019-04-05T14:36:51.951Z,17.53
2019-04-05T14:38:56.017Z,19.37
2019-04-05T14:40:59.845Z,17.17
2019-04-05T14:43:04.272Z,12.53
2019-04-05T14:45:09.394Z,13.43
2019-04-05T14:47:13.255Z,15.20
2019-04-05T14:49:17.403Z,13.13
2019-04-05T14:51:21.197Z,12.73
2019-04-05T14:53:25.063Z,15.70
2019-04-05T14:55:29.933Z,15.63
2019-04-05T14:57:35.683Z,16.50
2019-04-05T14:59:40.088Z,20.20
2019-04-05T15:01:44.654Z,15.33
2019-04-05T15:03:49.356Z,16.50
2019-04-05T15:05:53.261Z,16.83
2019-04-05T15:07:57.054Z,16.03
2019-04-05T15:10:03.590Z,13.03
2019-04-05T15:12:07.182Z,16.87
2019-04-05T15:14:11.331Z,18.97
2019-04-05T15:16:15.264Z,17.37
2019-04-05T15:18:19.697Z,15.87
2019-04-05T15:20:23.788Z,15.63
2019-04-05T15:22:28.386Z,19.37
2019-04-05T15:24:32.215Z,22.07
2019-04-05T15:26:36.173Z,16.27
2019-04-05T15:28:40.016Z,17.20
2019-04-05T15:30:44.057Z,16.37
2019-04-05T15:32:47.935Z,18.47
2019-04-05T15:34:51.764Z,13.63
2019-04-05T15:36:55.555Z,16.00
2019-04-05T15:39:01.274Z,18.83
2019-04-05T15:41:05.039Z,19.85
2019-04-05T15:43:08.864Z,18.70
2019-04-05T15:45:15.709Z,15.17
2019-04-05T15:47:18.675Z,17.00
2019-04-05T15:49:22.763Z,18.33
2019-04-05T15:51:26.564Z,18.73
2019-04-05T15:53:32.159Z,16.93
2019-04-05T15:55:35.955Z,23.13
2019-04-05T15:57:39.845Z,17.50
2019-04-05T15:59:45.145Z,23.70
2019-04-05T16:01:49.259Z,20.17
2019-04-05T16:03:53.090Z,20.37
2019-04-05T16:05:56.952Z,30.57
2019-04-05T16:08:00.833Z,20.67
2019-04-05T16:10:05.531Z,24.60
2019-04-05T16:12:09.515Z,20.90
2019-04-05T16:14:13.404Z,21.93
2019-04-05T16:16:17.635Z,19.93
2019-04-05T16:18:23.875Z,18.80
2019-04-05T16:20:27.812Z,22.70
2019-04-05T16:22:31.755Z,20.70
2019-04-05T16:24:35.920Z,22.47
2019-04-05T16:26:40.170Z,22.47
2019-04-05T16:28:44.064Z,22.37
2019-04-05T16:30:47.812Z,20.90
2019-04-05T16:32:51.762Z,24.70
2019-04-05T16:34:55.959Z,22.00
2019-04-05T16:36:59.867Z,22.80
2019-04-05T16:39:07.171Z,22.67
2019-04-05T16:41:11.047Z,24.00
2019-04-05T16:43:14.852Z,22.13
2019-04-05T16:45:19.607Z,22.30
2019-04-05T16:47:23.494Z,21.07
2019-04-05T16:49:27.374Z,25.73
2019-04-05T16:51:31.178Z,22.77
2019-04-05T16:53:35.315Z,21.07
2019-04-05T16:55:39.200Z,18.70
2019-04-05T16:57:43.143Z,21.20
2019-04-05T16:59:46.965Z,18.73
2019-04-05T17:01:50.821Z,20.03
2019-04-05T17:03:54.718Z,24.90
2019-04-05T17:05:58.555Z,21.33
2019-04-05T17:08:02.488Z,25.67
2019-04-05T17:10:06.830Z,21.37
2019-04-05T17:12:10.675Z,26.27
2019-04-05T17:14:14.571Z,28.57
2019-04-05T17:16:18.448Z,19.03
2019-04-05T17:18:22.240Z,21.83
2019-04-05T17:20:26.127Z,21.50
2019-04-05T17:22:29.935Z,23.00
2019-04-05T17:24:33.743Z,23.17
2019-04-05T17:26:37.992Z,28.20
2019-04-05T17:28:41.900Z,27.03
2019-04-05T17:30:45.674Z,32.73
2019-04-05T17:32:49.507Z,25.80
2019-04-05T17:34:53.434Z,23.50
2019-04-05T17:36:57.289Z,26.60
2019-04-05T17:39:01.276Z,25.57
2019-04-05T17:41:05.264Z,24.27
2019-04-05T17:43:09.143Z,26.73
2019-04-05T17:45:13.191Z,26.90
2019-04-05T17:47:17.015Z,22.57
2019-04-05T17:49:21.285Z,18.90
2019-04-05T17:51:25.530Z,24.43
2019-04-05T17:53:29.681Z,25.90
2019-04-05T17:55:33.660Z,26.03
2019-04-05T17:57:37.613Z,25.33
2019-04-05T17:59:41.547Z,23.67
2019-04-05T18:01:45.550Z,24.87
2019-04-05T18:03:49.341Z,27.17
2019-04-05T18:05:53.203Z,23.97
2019-04-05T18:07:57.049Z,23.33
2019-04-05T18:10:00.887Z,23.03
2019-04-05T18:12:05.098Z,24.10
2019-04-05T18:14:08.915Z,28.30
2019-04-05T18:16:12.715Z,26.27
2019-04-05T18:18:16.552Z,26.15
2019-04-05T18:20:20.446Z,29.80
2019-04-05T18:22:24.381Z,27.33
2019-04-05T18:24:28.354Z,25.67
2019-04-05T18:26:32.208Z,24.17
2019-04-05T18:28:36.926Z,25.50
2019-04-05T18:30:40.816Z,25.33
2019-04-05T18:32:44.787Z,25.67
2019-04-05T18:34:48.603Z,29.83
2019-04-05T18:36:52.481Z,28.67
2019-04-05T18:38:56.647Z,30.97
2019-04-05T18:41:00.759Z,26.57
2019-04-05T18:43:04.768Z,26.03
2019-04-05T18:45:09.985Z,30.43
2019-04-05T18:47:33.004Z,26.93
2019-04-05T18:49:36.822Z,25.27
2019-04-05T18:51:40.665Z,31.00
2019-04-05T18:53:44.536Z,27.33
2019-04-05T18:55:48.323Z,29.80
2019-04-05T18:57:52.515Z,28.53
2019-04-05T18:59:56.315Z,24.53
2019-04-05T19:02:00.082Z,29.33
2019-04-05T19:04:05.526Z,32.53
2019-04-05T19:06:09.636Z,27.13
2019-04-05T19:08:13.821Z,30.00
2019-04-05T19:10:17.731Z,31.63
2019-04-05T19:12:21.538Z,27.03
2019-04-05T19:14:25.418Z,30.77
2019-04-05T19:16:29.616Z,29.67
2019-04-05T19:18:33.634Z,38.20
2019-04-05T19:20:37.807Z,26.23
2019-04-05T19:22:41.767Z,28.63
2019-04-05T19:24:45.631Z,31.93
2019-04-05T19:26:49.524Z,28.57
2019-04-05T19:28:53.415Z,27.57
2019-04-05T19:49:48.703Z,32.73
2019-04-05T19:51:52.571Z,29.43
2019-04-05T19:54:01.240Z,34.10
2019-04-05T19:56:02.151Z,29.50
2019-04-05T19:58:06.159Z,28.03
2019-04-05T20:00:10.235Z,33.33
2019-04-05T20:02:14.178Z,30.00
2019-04-05T20:04:18.074Z,32.10
2019-04-05T20:06:22.026Z,28.57
2019-04-05T20:08:25.886Z,29.27
2019-04-05T20:10:29.715Z,32.23
2019-04-05T20:12:33.670Z,29.73
2019-04-05T20:14:37.595Z,30.07
2019-04-05T20:16:41.515Z,29.53
2019-04-05T20:18:45.367Z,29.47
2019-04-05T20:20:49.264Z,28.33
2019-04-05T20:22:53.146Z,32.77
2019-04-05T20:24:57.333Z,29.50
2019-04-05T20:27:01.240Z,26.93
2019-04-05T20:29:05.112Z,28.97
2019-04-05T20:31:09.054Z,33.30
2019-04-05T20:33:13.986Z,27.57
2019-04-05T20:35:17.784Z,29.00
2019-04-05T20:37:21.742Z,34.93
2019-04-05T20:39:25.877Z,26.17
2019-04-05T20:41:29.811Z,30.03
2019-04-05T20:43:34.743Z,32.23
2019-04-05T20:45:38.595Z,30.27
2019-04-05T20:47:42.498Z,29.20
2019-04-05T20:49:46.529Z,27.87
2019-04-05T20:51:50.314Z,29.73
2019-04-05T20:53:54.246Z,30.13
2019-04-05T20:55:58.183Z,34.20
2019-04-05T20:58:02.062Z,27.90
2019-04-05T21:00:07.731Z,28.03
2019-04-05T21:02:11.940Z,30.13
2019-04-05T21:04:15.741Z,51.93
2019-04-05T21:06:19.575Z,30.53
2019-04-05T21:08:23.435Z,34.07
2019-04-05T21:10:27.316Z,31.00
2019-04-05T21:12:31.109Z,33.83
2019-04-05T21:14:34.915Z,34.63
2019-04-05T21:16:38.735Z,29.33
2019-04-05T21:18:42.583Z,33.67
2019-04-05T21:20:48.922Z,39.10
2019-04-05T21:22:54.483Z,33.33
2019-04-05T21:24:58.468Z,34.43
2019-04-05T21:27:04.955Z,32.67
2019-04-05T21:29:08.948Z,34.63
2019-04-05T21:31:12.758Z,36.67
2019-04-05T21:33:16.630Z,36.90
2019-04-05T21:35:21.088Z,35.10
2019-04-05T21:37:24.895Z,31.87
2019-04-05T21:39:28.720Z,36.50
2019-04-05T21:41:32.499Z,31.17
2019-04-05T21:43:36.296Z,38.17
2019-04-05T21:45:40.259Z,36.90
2019-04-05T21:47:44.051Z,35.07
2019-04-05T21:49:48.030Z,37.00
2019-04-05T21:51:51.842Z,33.40
2019-04-05T21:53:55.755Z,36.83
2019-04-05T21:55:59.539Z,38.73
2019-04-05T21:58:03.433Z,35.17
2019-04-05T22:00:12.706Z,28.53
2019-04-05T22:02:16.816Z,30.87
2019-04-05T22:04:20.691Z,32.30
2019-04-05T22:06:24.486Z,28.83
2019-04-05T22:08:28.367Z,35.87
2019-04-05T22:10:32.322Z,34.47
2019-04-05T22:12:36.175Z,34.90
2019-04-05T22:14:39.952Z,31.57
2019-04-05T22:16:44.208Z,31.30
2019-04-05T22:18:48.019Z,31.67
2019-04-05T22:20:51.820Z,33.80
2019-04-05T22:22:55.653Z,35.67
2019-04-05T22:24:59.795Z,31.47
2019-04-05T22:27:03.769Z,35.83
2019-04-05T22:29:07.634Z,36.67
2019-04-05T22:31:11.498Z,34.20
2019-04-05T22:33:15.295Z,39.03
2019-04-05T22:35:19.107Z,36.57
2019-04-05T22:37:23.300Z,33.20
2019-04-05T22:39:27.134Z,31.17
2019-04-05T22:41:30.983Z,36.50
2019-04-05T22:43:34.904Z,29.20
2019-04-05T22:45:38.784Z,31.00
2019-04-05T22:47:42.907Z,31.93
2019-04-05T22:49:46.659Z,32.67
2019-04-05T22:51:50.635Z,26.40
2019-04-05T22:53:54.450Z,31.07
2019-04-05T22:55:58.319Z,27.83
2019-04-05T22:58:02.115Z,29.00
2019-04-05T23:00:07.186Z,24.80
2019-04-05T23:02:11.080Z,27.43
2019-04-05T23:04:14.939Z,27.60
2019-04-05T23:06:18.866Z,24.93
2019-04-05T23:08:22.659Z,27.73
2019-04-05T23:10:26.539Z,31.87
2019-04-05T23:12:30.426Z,30.40
2019-04-05T23:14:34.214Z,31.33
2019-04-05T23:16:38.119Z,28.70
2019-04-05T23:18:41.942Z,36.10
2019-04-05T23:20:45.837Z,32.60
2019-04-05T23:22:49.724Z,31.13
2019-04-05T23:24:53.827Z,28.53
2019-04-05T23:26:57.596Z,30.03
2019-04-05T23:29:01.447Z,29.37
2019-04-05T23:31:05.470Z,26.43
2019-04-05T23:33:09.289Z,28.13
2019-04-05T23:35:13.254Z,28.23
2019-04-05T23:37:17.064Z,26.63
2019-04-05T23:39:22.311Z,24.37
2019-04-05T23:41:26.114Z,25.23
2019-04-05T23:43:30.002Z,28.00
2019-04-05T23:45:33.859Z,26.80
2019-04-05T23:47:37.656Z,24.57
2019-04-05T23:49:41.533Z,30.33
2019-04-05T23:51:45.427Z,28.80
2019-04-05T23:53:49.367Z,29.93
2019-04-05T23:55:53.179Z,24.23
2019-04-05T23:57:59.474Z,30.50
